Vernon, TX

1:15 PM CDT on August 30, 2014 (GMT -0500)
Vernon | Change Station
CLOSE
Current Station
Airport
Location: Vernon,
Elevation: 1266 ft
Nearby Weather Stations

Elev 1266 ft 34.23 °N, 99.28 °W | Updated 20 minutes ago

Clear
Clear
89 °F
Feels Like 92 °F
N
0
Wind Variable Wind from North

Today
High -- | Low -- °F
--% Chance of Precip.
Yesterday
High -- | Low -- °F
Precip. -- in
7:09 AM 8:05 PM
Waxing Crescent, 23% visible
Pressure 29.97 in
Visibility 10.0 miles
Clouds Clear
Heat Index 92 °F
Dew Point 68 °F
Humidity 48%
Rainfall 0.00 in
Snow Depth Not available.
UV 10 out of 12
Pollen 10.00 out of 12
Air Quality Not available.
Flu Activity Not available.
METAR KF05 301755Z AUTO 00000KT 10SM CLR 32/20 A2997 RMK AO1 T03180197 10376 20202

More Conditions Fewer Conditions

Pressure 29.97 in
Visibility 10.0 miles
Clouds Clear
Heat Index 92 °F
Dew Point 68 °F
Humidity 48%
Rainfall 0.00 in
Snow Depth Not available.
UV 10 out of 12
Pollen 10.00 out of 12
Air Quality Not available.
Flu Activity Not available.
METAR KF05 301755Z AUTO 00000KT 10SM CLR 32/20 A2997 RMK AO1 T03180197 10376 20202

More Conditions Fewer Conditions

10-Day Weather Forecast

Almanac

Astronomy

Aug. 30, 2014 Rise Set
Actual Time 7:09 AM CDT 8:05 PM CDT
Civil Twilight 6:43 AM CDT 8:31 PM CDT
Nautical Twilight 6:13 AM CDT 9:01 PM CDT
Astronomical Twilight 5:41 AM CDT 9:32 PM CDT
Moon 11:44 AM CDT 10:55 PM CDT
Length of Visible Light 13h 47m
Length of Day
12h 56m
Tomorrow will be 2m 2s shorter.
Waxing Crescent, 23% of the Moon is Illuminated
Today
Waxing Crescent
Sep 2
First Quarter
Sep 8
Full
Sep 15
Last Quarter
Sep 24
New

Today's Extremes

State Highs State Lows

Community

WunderPhotos

Upload Photos

1,748,583 photos uploaded!

WunderBlogs® & News

Nearby

Snow Depth

Station Depth Elevation
No new snow has been reported.

Earthquake Activity

City Distance Mag. Time & Date
Guthrie, Oklahoma 152 miles 3.2 10:39 AM CDT
2014-08-29
Perry, Oklahoma 168 miles 3.0 4:52 AM CDT
2014-08-29
Perry, Oklahoma 170 miles 3.1 10:01 PM CDT
2014-08-28
Minimum magnitude displayed is 2.5.

Coastal Water Temperatures

Place Temperature
No Stations Reporting

Nearby Weather Stations